Aeroporto :
LOGIN :

Iscrizione | Disclaimer

   EN    FR    IT 

 










Sommario :    VFR   VFR Marginale   IFR   IFR Intensivo   IFR Molto Intensivo
Visibilità : 
Base nubi : 
>= 8 km
>= 3000ft
5 / 8 km
1000 / 3000 ft
1500m / 5 km
500 / 1000 ft
800 / 1500m
200 / 500 ft
< 800m
< 200 ft
Simboli :   Temporali  Nebbia  Neve Forte  Precipitazioni Forti  Vento > 20 kt
SIGMETs :   Varie  Temporali  Ghiacco  Turbolenza  Onda orograficha  Ceneri Vulcaniche







- Altitudine del aeroporto : 330 ft
- Codice IATA : LVA
- Carte del aeroporto


LFOV - Laval-Entrammes

ULTIMO METAR :
  • 191230Z AUTO 34010KT 300V360 9999 SCT025 SCT030 BKN043 16/10 Q1009

METARs OBSOLETI :
  • 191200Z AUTO 35009KT 310V020 9999 BKN027 BKN034 BKN041 16/10 Q1009
  • 191130Z AUTO 35008KT 300V030 9999 FEW026 SCT034 BKN052 16/10 Q1009
  • 191100Z AUTO 35007KT 310V030 9999 BKN023 BKN028 OVC033 15/11 Q1009
  • 191030Z AUTO 33006KT 300V010 9999 BKN023 OVC031 14/10 Q1009
  • 191000Z AUTO 32007KT 280V010 9999 SCT021 OVC029 14/10 Q1009

TAF N/A
Nessun NOTAM noto per questo aeroporto.



MetMap, La meteo Aeronautica in un colpo d'occhio ! - Copyright ORBIFLY Dicembre 2007 - Disclaimer

ORBIFLY MET'MAP TEAM :

Programmazione e sviluppo : Alexandra Zaïnal
Concezione e sviluppo : Baudouin d'Aumeries
Co-Programmazione e sviluppo : Marc-Olivier Méhu
Supporto tecnico e logistico : Manuel Goepfert
Aiuto per la traduzione : Arnaldo La Scala

Contatto : metmap@orbifly.com




FONTI E CREDITI :

   NOAA